createdAt,value
2022-10-03T00:04:28.798Z,1020.69
2022-10-03T00:09:27.944Z,1020.62
2022-10-03T00:14:27.267Z,1020.71
2022-10-03T00:19:26.590Z,1020.66
2022-10-03T00:24:25.873Z,1020.73
2022-10-03T00:29:26.186Z,1020.80
2022-10-03T00:34:24.500Z,1020.73
2022-10-03T00:39:23.691Z,1020.80
2022-10-03T00:44:22.809Z,1020.81
2022-10-03T00:49:22.136Z,1020.80
2022-10-03T00:54:21.455Z,1020.74
2022-10-03T00:59:20.784Z,1020.82
2022-10-03T01:04:20.098Z,1020.79
2022-10-03T01:09:20.380Z,1020.86
2022-10-03T01:14:18.660Z,1020.96
2022-10-03T01:19:18.950Z,1020.94
2022-10-03T01:24:17.233Z,1021.00
2022-10-03T01:29:17.523Z,1020.97
2022-10-03T01:34:15.803Z,1021.03
2022-10-03T01:39:17.103Z,1021.02
2022-10-03T01:44:14.374Z,1021.09
2022-10-03T01:49:14.646Z,1021.16
2022-10-03T01:54:13.929Z,1021.17
2022-10-03T01:59:12.213Z,1021.24
2022-10-03T02:04:11.488Z,1021.22
2022-10-03T02:09:10.770Z,1021.24
2022-10-03T02:14:10.091Z,1021.21
2022-10-03T02:19:09.428Z,1021.23
2022-10-03T02:24:08.563Z,1021.28
2022-10-03T02:29:07.887Z,1021.36
2022-10-03T02:34:07.245Z,1021.32
2022-10-03T02:39:06.440Z,1021.38
2022-10-03T02:44:06.624Z,1021.37
2022-10-03T02:49:04.781Z,1021.40
2022-10-03T02:54:03.933Z,1021.47
2022-10-03T02:59:03.093Z,1021.56
2022-10-03T03:04:02.258Z,1021.55
2022-10-03T03:09:01.425Z,1021.66
2022-10-03T03:14:00.606Z,1021.70
2022-10-03T03:19:00.767Z,1021.74
2022-10-03T03:23:59.938Z,1021.67
2022-10-03T03:28:58.115Z,1021.74
2022-10-03T03:33:58.336Z,1021.69
2022-10-03T03:38:56.544Z,1021.74
2022-10-03T03:43:55.776Z,1021.67
2022-10-03T03:48:56.100Z,1021.69
2022-10-03T03:53:55.260Z,1021.77
2022-10-03T03:58:52.455Z,1021.80
2022-10-03T04:03:54.638Z,1021.78
2022-10-03T04:08:51.810Z,1021.80
2022-10-03T04:13:50.984Z,1021.82
2022-10-03T04:18:50.161Z,1021.81
2022-10-03T04:23:49.332Z,1021.84
2022-10-03T04:28:49.513Z,1021.79
2022-10-03T04:33:47.689Z,1021.85
2022-10-03T04:38:46.844Z,1021.84
2022-10-03T04:43:46.016Z,1021.65
2022-10-03T04:48:45.183Z,1021.63
2022-10-03T04:53:46.355Z,1021.54
2022-10-03T04:58:44.616Z,1021.56
2022-10-03T05:03:44.008Z,1021.56
2022-10-03T05:08:42.094Z,1021.60
2022-10-03T05:13:41.430Z,1021.59
2022-10-03T05:18:40.739Z,1021.62
2022-10-03T05:23:41.101Z,1021.68
2022-10-03T05:28:41.234Z,1021.60
2022-10-03T05:33:38.513Z,1021.73
2022-10-03T05:38:37.820Z,1021.69
2022-10-03T05:43:38.125Z,1021.78
2022-10-03T05:48:36.449Z,1021.87
2022-10-03T05:53:37.739Z,1021.90
2022-10-03T05:58:35.044Z,1021.90
2022-10-03T06:03:34.446Z,1021.96
2022-10-03T06:08:33.622Z,1022.05
2022-10-03T06:13:32.930Z,1022.06
2022-10-03T06:18:32.215Z,1022.18
2022-10-03T06:23:32.499Z,1022.26
2022-10-03T06:28:30.851Z,1022.37
2022-10-03T06:33:30.034Z,1022.42
2022-10-03T06:38:29.333Z,1022.38
2022-10-03T06:43:29.615Z,1022.40
2022-10-03T06:48:27.942Z,1022.29
2022-10-03T06:53:28.240Z,1022.31
2022-10-03T06:58:26.548Z,1022.29
2022-10-03T07:03:26.848Z,1022.39
2022-10-03T07:08:26.168Z,1022.51
2022-10-03T07:13:25.480Z,1022.59
2022-10-03T07:18:24.765Z,1022.58
2022-10-03T07:23:24.057Z,1022.61
2022-10-03T07:28:24.454Z,1022.73
2022-10-03T07:33:21.578Z,1022.79
2022-10-03T07:38:21.889Z,1022.81
2022-10-03T07:43:20.210Z,1022.90
2022-10-03T07:48:20.541Z,1022.93
2022-10-03T07:53:18.845Z,1022.89
2022-10-03T07:58:18.169Z,1022.92
2022-10-03T08:03:17.549Z,1022.97
2022-10-03T08:08:16.612Z,1023.01
2022-10-03T08:13:15.894Z,1023.07
2022-10-03T08:18:15.223Z,1023.12
2022-10-03T08:23:13.531Z,1023.00
2022-10-03T08:28:13.893Z,1022.99
2022-10-03T08:33:12.014Z,1023.03
2022-10-03T08:38:12.197Z,1023.10
2022-10-03T08:43:11.347Z,1023.09
2022-10-03T08:48:10.679Z,1023.17
2022-10-03T08:53:13.043Z,1023.11
2022-10-03T08:58:09.087Z,1023.02
2022-10-03T09:08:06.506Z,1022.92
2022-10-03T09:13:07.613Z,1022.94
2022-10-03T09:18:05.900Z,1022.88
2022-10-03T09:23:06.287Z,1022.82
2022-10-03T09:28:04.440Z,1022.80
2022-10-03T09:33:03.788Z,1022.78
2022-10-03T09:38:03.189Z,1022.76
2022-10-03T09:43:02.147Z,1022.70
2022-10-03T09:48:01.381Z,1022.62
2022-10-03T09:52:59.498Z,1022.52
2022-10-03T09:57:59.650Z,1022.53
2022-10-03T10:02:58.971Z,1022.55
2022-10-03T10:07:58.313Z,1022.56
2022-10-03T10:12:57.542Z,1022.47
2022-10-03T10:17:55.684Z,1022.42
2022-10-03T10:22:55.987Z,1022.37
2022-10-03T10:27:55.253Z,1022.35
2022-10-03T10:32:54.444Z,1022.31
2022-10-03T10:37:52.600Z,1022.28
2022-10-03T10:42:52.793Z,1022.15
2022-10-03T10:47:51.931Z,1022.13
2022-10-03T10:52:51.130Z,1022.15
2022-10-03T10:57:50.350Z,1022.12
2022-10-03T11:02:49.468Z,1022.06
2022-10-03T11:07:51.847Z,1022.13
2022-10-03T11:12:47.987Z,1022.17
2022-10-03T11:17:47.436Z,1022.12
2022-10-03T11:22:46.597Z,1022.16
2022-10-03T11:27:44.767Z,1022.22
2022-10-03T11:32:43.980Z,1022.19
2022-10-03T11:37:43.159Z,1022.23
2022-10-03T11:42:42.420Z,1022.26
2022-10-03T11:47:42.603Z,1022.22
2022-10-03T11:52:41.761Z,1022.23
2022-10-03T11:57:41.130Z,1022.21
2022-10-03T12:02:40.343Z,1022.03
2022-10-03T12:07:39.539Z,1022.01
2022-10-03T12:12:38.684Z,1021.87
2022-10-03T12:17:38.851Z,1021.91
2022-10-03T12:22:38.108Z,1021.84
2022-10-03T12:27:36.350Z,1021.90
2022-10-03T12:32:35.566Z,1021.89
2022-10-03T12:37:33.823Z,1021.88
2022-10-03T12:42:34.000Z,1021.84
2022-10-03T12:47:54.386Z,1021.81
2022-10-03T12:52:33.451Z,1021.78
2022-10-03T12:57:30.649Z,1021.82
2022-10-03T13:02:30.881Z,1021.90
2022-10-03T13:07:29.077Z,1021.77
2022-10-03T13:12:29.218Z,1021.72
2022-10-03T13:17:28.384Z,1021.66
2022-10-03T13:22:27.562Z,1021.65
2022-10-03T13:27:26.758Z,1021.65
2022-10-03T13:32:25.910Z,1021.62
2022-10-03T13:37:24.077Z,1021.60
2022-10-03T13:42:24.453Z,1021.58
2022-10-03T13:47:23.616Z,1021.54
2022-10-03T13:52:22.737Z,1021.51
2022-10-03T13:57:22.056Z,1021.44
2022-10-03T14:02:24.493Z,1021.48
2022-10-03T14:07:19.632Z,1021.52
2022-10-03T14:12:37.863Z,1021.49
2022-10-03T14:17:19.097Z,1021.48
2022-10-03T14:22:18.445Z,1021.46
2022-10-03T14:27:17.740Z,1021.34
2022-10-03T14:32:42.365Z,1021.40
2022-10-03T14:37:16.368Z,1021.28
2022-10-03T14:42:14.563Z,1021.35
2022-10-03T14:47:14.698Z,1021.21
2022-10-03T14:52:14.140Z,1021.24
2022-10-03T14:57:13.246Z,1021.29
2022-10-03T15:02:16.801Z,1021.28
2022-10-03T15:07:11.829Z,1021.25
2022-10-03T15:12:11.017Z,1021.22
2022-10-03T15:17:10.226Z,1021.13
2022-10-03T15:22:10.444Z,1021.11
2022-10-03T15:27:07.641Z,1021.17
2022-10-03T15:32:07.820Z,1021.17
2022-10-03T15:37:06.982Z,1021.13
2022-10-03T15:42:06.183Z,1021.14
2022-10-03T15:47:05.344Z,1021.11
2022-10-03T15:52:04.530Z,1021.19
2022-10-03T15:57:03.656Z,1021.15
2022-10-03T16:02:03.002Z,1021.12
2022-10-03T16:07:02.164Z,1021.09
2022-10-03T16:12:01.243Z,1021.12
2022-10-03T16:16:59.535Z,1021.10
2022-10-03T16:21:59.891Z,1021.06
2022-10-03T16:27:00.005Z,1020.99
2022-10-03T16:31:58.160Z,1020.99
2022-10-03T16:36:57.461Z,1021.09
2022-10-03T16:41:57.682Z,1021.14
2022-10-03T16:46:55.864Z,1021.14
2022-10-03T16:51:55.067Z,1021.24
2022-10-03T16:56:54.210Z,1021.27
2022-10-03T17:01:54.530Z,1021.27
2022-10-03T17:06:52.723Z,1021.29
2022-10-03T17:11:51.864Z,1021.26
2022-10-03T17:16:51.237Z,1021.25
2022-10-03T17:21:50.442Z,1021.29
2022-10-03T17:26:49.609Z,1021.26
2022-10-03T17:31:49.847Z,1021.18
2022-10-03T17:36:49.080Z,1021.16
2022-10-03T17:41:46.179Z,1021.17
2022-10-03T17:46:46.344Z,1021.15
2022-10-03T17:51:46.537Z,1021.26
2022-10-03T17:56:44.619Z,1021.22
2022-10-03T18:01:45.301Z,1021.29
2022-10-03T18:06:43.111Z,1021.28
2022-10-03T18:11:42.864Z,1021.37
2022-10-03T18:16:42.801Z,1021.48
2022-10-03T18:21:41.316Z,1021.56
2022-10-03T18:26:41.437Z,1021.53
2022-10-03T18:31:40.603Z,1021.47
2022-10-03T18:36:38.887Z,1021.34
2022-10-03T18:41:38.320Z,1021.43
2022-10-03T18:46:38.053Z,1021.31
2022-10-03T18:51:36.291Z,1021.22
2022-10-03T18:56:35.483Z,1021.11
2022-10-03T19:01:34.751Z,1021.20
2022-10-03T19:06:36.170Z,1021.22
2022-10-03T19:11:33.235Z,1021.20
2022-10-03T19:16:32.658Z,1021.18
2022-10-03T19:21:31.823Z,1021.22
2022-10-03T19:26:35.855Z,1021.19
2022-10-03T19:31:30.263Z,1021.17
2022-10-03T19:36:29.534Z,1021.25
2022-10-03T19:41:29.717Z,1021.27
2022-10-03T19:46:28.893Z,1021.31
2022-10-03T19:51:28.066Z,1021.29
2022-10-03T19:56:26.242Z,1021.14
2022-10-03T20:01:26.461Z,1021.16
2022-10-03T20:06:23.595Z,1021.10
2022-10-03T20:11:25.741Z,1021.13
2022-10-03T20:16:24.129Z,1021.11
2022-10-03T20:21:23.222Z,1021.03
2022-10-03T20:26:22.521Z,1021.06
2022-10-03T20:31:22.807Z,1021.00
2022-10-03T20:36:22.063Z,1021.08
2022-10-03T20:41:19.382Z,1021.04
2022-10-03T20:46:18.823Z,1021.00
2022-10-03T20:51:20.055Z,1020.92
2022-10-03T20:56:17.155Z,1020.93
2022-10-03T21:01:17.519Z,1020.95
2022-10-03T21:06:15.621Z,1020.92
2022-10-03T21:11:15.963Z,1020.84
2022-10-03T21:16:15.394Z,1020.90
2022-10-03T21:21:13.510Z,1020.78
2022-10-03T21:26:13.827Z,1020.79
2022-10-03T21:31:13.160Z,1020.80
2022-10-03T21:36:11.284Z,1020.78
2022-10-03T21:41:10.641Z,1020.69
2022-10-03T21:46:09.839Z,1020.65
2022-10-03T21:51:08.964Z,1020.61
2022-10-03T21:56:09.263Z,1020.60
2022-10-03T22:01:08.544Z,1020.49
2022-10-03T22:06:06.674Z,1020.45
2022-10-03T22:11:06.969Z,1020.40
2022-10-03T22:16:05.300Z,1020.41
2022-10-03T22:21:05.660Z,1020.39
2022-10-03T22:26:03.772Z,1020.33
2022-10-03T22:31:05.169Z,1020.34
2022-10-03T22:36:03.270Z,1020.32
2022-10-03T22:41:02.577Z,1020.28
2022-10-03T22:46:00.943Z,1020.31
2022-10-03T22:51:01.030Z,1020.23
2022-10-03T22:55:59.363Z,1020.11
2022-10-03T23:00:59.512Z,1020.12
2022-10-03T23:05:59.647Z,1020.03
2022-10-03T23:10:56.770Z,1020.00
2022-10-03T23:15:57.133Z,1019.94
2022-10-03T23:20:55.448Z,1019.89
2022-10-03T23:25:54.761Z,1019.88
2022-10-03T23:30:54.258Z,1019.84
2022-10-03T23:35:53.360Z,1019.84
2022-10-03T23:40:52.498Z,1019.77
2022-10-03T23:45:51.811Z,1019.76
2022-10-03T23:50:51.126Z,1019.72
2022-10-03T23:55:51.468Z,1019.74
